createdAt,value
2019-04-04T00:00:37.352Z,3.30
2019-04-04T00:03:08.470Z,3.40
2019-04-04T00:05:39.401Z,3.87
2019-04-04T00:08:11.283Z,3.70
2019-04-04T00:10:42.123Z,3.60
2019-04-04T00:13:13.535Z,3.72
2019-04-04T00:15:45.528Z,2.97
2019-04-04T00:18:17.357Z,3.77
2019-04-04T00:20:50.277Z,3.37
2019-04-04T00:23:21.094Z,3.40
2019-04-04T00:25:52.296Z,3.67
2019-04-04T00:28:24.229Z,3.87
2019-04-04T00:30:55.105Z,3.63
2019-04-04T00:33:26.365Z,3.50
2019-04-04T00:35:57.845Z,4.50
2019-04-04T00:38:29.235Z,5.03
2019-04-04T00:41:00.110Z,4.57
2019-04-04T00:43:30.929Z,4.47
2019-04-04T00:46:02.197Z,3.97
2019-04-04T00:48:34.279Z,4.77
2019-04-04T00:51:07.707Z,4.83
2019-04-04T00:53:38.495Z,4.50
2019-04-04T00:56:09.925Z,4.83
2019-04-04T00:58:41.279Z,4.58
2019-04-04T01:01:12.429Z,5.10
2019-04-04T01:03:43.516Z,4.87
2019-04-04T01:06:14.611Z,5.50
2019-04-04T01:08:45.635Z,4.80
2019-04-04T01:11:18.344Z,4.87
2019-04-04T01:13:49.177Z,6.33
2019-04-04T01:16:20.096Z,4.62
2019-04-04T01:18:50.929Z,5.12
2019-04-04T01:21:22.235Z,5.97
2019-04-04T01:23:54.092Z,5.37
2019-04-04T01:26:25.492Z,5.03
2019-04-04T01:28:56.331Z,6.50
2019-04-04T01:31:27.677Z,6.27
2019-04-04T01:33:58.518Z,5.20
2019-04-04T01:36:29.965Z,6.00
2019-04-04T01:39:01.011Z,6.37
2019-04-04T01:41:36.003Z,6.10
2019-04-04T01:44:11.331Z,6.25
2019-04-04T01:46:43.991Z,7.10
2019-04-04T01:49:19.114Z,7.07
2019-04-04T01:51:50.563Z,6.37
2019-04-04T01:54:23.020Z,6.40
2019-04-04T01:56:54.084Z,6.90
2019-04-04T01:59:25.249Z,7.07
2019-04-04T02:01:56.638Z,6.00
2019-04-04T02:04:27.730Z,6.87
2019-04-04T02:06:59.747Z,7.47
2019-04-04T02:09:32.032Z,7.83
2019-04-04T02:12:03.997Z,8.40
2019-04-04T02:14:34.849Z,8.33
2019-04-04T02:17:05.801Z,9.10
2019-04-04T02:19:37.423Z,9.08
2019-04-04T02:22:08.243Z,9.47
2019-04-04T02:24:39.228Z,9.70
2019-04-04T02:27:10.086Z,10.45
2019-04-04T02:29:41.936Z,9.93
2019-04-04T02:32:15.649Z,9.67
2019-04-04T02:34:46.486Z,11.65
2019-04-04T02:37:20.804Z,11.50
2019-04-04T02:39:50.263Z,10.30
2019-04-04T02:42:22.293Z,11.15
2019-04-04T02:44:53.354Z,9.48
2019-04-04T02:47:24.201Z,10.43
2019-04-04T02:49:55.133Z,11.05
2019-04-04T02:52:27.261Z,10.13
2019-04-04T02:54:58.661Z,11.03
2019-04-04T02:57:29.506Z,12.00
2019-04-04T03:00:00.339Z,11.40
2019-04-04T03:02:31.802Z,10.70
2019-04-04T03:05:03.005Z,10.27
2019-04-04T03:07:34.523Z,11.70
2019-04-04T03:10:06.004Z,11.20
2019-04-04T03:12:37.134Z,11.70
2019-04-04T03:15:10.242Z,9.98
2019-04-04T03:17:41.518Z,11.27
2019-04-04T03:20:16.121Z,12.03
2019-04-04T03:22:46.072Z,11.70
2019-04-04T03:25:16.944Z,12.97
2019-04-04T03:27:48.057Z,12.63
2019-04-04T03:30:19.454Z,12.10
2019-04-04T03:32:53.840Z,12.07
2019-04-04T03:35:27.966Z,12.17
2019-04-04T03:37:56.344Z,11.33
2019-04-04T03:40:27.173Z,13.03
2019-04-04T03:42:59.209Z,13.17
2019-04-04T03:45:31.473Z,12.40
2019-04-04T03:48:03.549Z,11.70
2019-04-04T03:50:34.414Z,12.30
2019-04-04T03:53:07.043Z,12.47
2019-04-04T03:55:38.502Z,12.33
2019-04-04T03:58:09.345Z,13.33
2019-04-04T04:00:40.780Z,14.13
2019-04-04T04:03:12.179Z,12.30
2019-04-04T04:05:43.178Z,12.93
2019-04-04T04:08:14.053Z,13.60
2019-04-04T04:10:44.907Z,14.37
2019-04-04T04:13:17.374Z,14.23
2019-04-04T04:15:48.823Z,14.75
2019-04-04T04:18:21.319Z,13.13
2019-04-04T04:20:54.566Z,13.40
2019-04-04T04:23:26.074Z,13.77
2019-04-04T04:25:56.931Z,13.47
2019-04-04T04:28:27.920Z,14.30
2019-04-04T04:30:59.219Z,14.07
2019-04-04T04:33:30.143Z,15.67
2019-04-04T04:36:01.044Z,15.37
2019-04-04T04:38:31.965Z,15.70
2019-04-04T04:41:03.491Z,15.50
2019-04-04T04:43:34.386Z,16.13
2019-04-04T04:46:07.059Z,15.17
2019-04-04T04:48:38.019Z,16.20
2019-04-04T04:51:11.658Z,16.53
2019-04-04T04:53:41.696Z,16.43
2019-04-04T04:56:12.582Z,16.50
2019-04-04T04:58:43.959Z,16.40
2019-04-04T05:01:16.147Z,17.77
2019-04-04T05:03:50.756Z,18.43
2019-04-04T05:06:23.507Z,18.43
2019-04-04T05:08:54.370Z,16.73
2019-04-04T05:11:26.233Z,17.10
2019-04-04T05:13:58.182Z,17.17
2019-04-04T05:16:29.989Z,18.90
2019-04-04T05:19:00.851Z,17.57
2019-04-04T05:21:34.551Z,18.93
2019-04-04T05:24:05.934Z,19.43
2019-04-04T05:26:38.481Z,18.93
2019-04-04T05:29:13.223Z,18.70
2019-04-04T05:31:42.427Z,18.60
2019-04-04T05:34:14.786Z,18.03
2019-04-04T05:36:46.284Z,20.27
2019-04-04T05:39:18.021Z,20.40
2019-04-04T05:42:07.682Z,19.40
2019-04-04T05:44:41.238Z,20.05
2019-04-04T05:47:11.954Z,21.07
2019-04-04T05:49:44.375Z,22.20
2019-04-04T05:52:15.555Z,21.17
2019-04-04T05:54:47.102Z,21.37
2019-04-04T05:57:20.790Z,20.23
2019-04-04T05:59:54.988Z,21.70
2019-04-04T06:02:25.341Z,20.48
2019-04-04T06:04:56.312Z,20.80
2019-04-04T06:07:27.170Z,19.53
2019-04-04T06:09:57.989Z,21.33
2019-04-04T06:12:29.081Z,20.92
2019-04-04T06:15:00.600Z,20.53
2019-04-04T06:17:32.887Z,20.93
2019-04-04T06:20:04.563Z,20.47
2019-04-04T06:22:35.660Z,19.53
2019-04-04T06:25:06.966Z,20.10
2019-04-04T06:27:40.220Z,20.23
2019-04-04T06:30:13.148Z,18.13
2019-04-04T06:32:44.516Z,19.27
2019-04-04T06:35:16.174Z,17.63
2019-04-04T06:37:49.141Z,19.97
2019-04-04T06:40:20.271Z,20.33
2019-04-04T06:42:51.742Z,20.50
2019-04-04T06:45:22.855Z,20.25
2019-04-04T06:47:55.287Z,20.02
2019-04-04T06:50:26.364Z,20.15
2019-04-04T06:52:57.607Z,18.93
2019-04-04T06:55:29.497Z,19.85
2019-04-04T06:58:01.021Z,18.70
2019-04-04T07:00:31.858Z,19.67
2019-04-04T07:03:02.727Z,19.10
2019-04-04T07:05:33.868Z,20.37
2019-04-04T07:08:04.826Z,18.13
2019-04-04T07:10:36.510Z,17.00
2019-04-04T07:13:20.989Z,17.27
2019-04-04T07:15:46.783Z,16.50
2019-04-04T07:18:13.433Z,16.30
2019-04-04T07:20:48.039Z,15.40
2019-04-04T07:23:17.705Z,15.90
2019-04-04T07:25:48.548Z,15.53
2019-04-04T07:28:19.726Z,16.20
2019-04-04T07:30:54.476Z,14.53
2019-04-04T07:33:24.921Z,16.80
2019-04-04T07:35:56.078Z,15.40
2019-04-04T07:38:28.678Z,16.50
2019-04-04T07:40:59.763Z,15.80
2019-04-04T07:43:30.838Z,15.57
2019-04-04T07:46:15.727Z,15.40
2019-04-04T07:48:34.543Z,16.53
2019-04-04T07:51:05.497Z,15.13
2019-04-04T07:53:37.063Z,15.37
2019-04-04T07:56:08.582Z,15.33
2019-04-04T07:58:39.879Z,15.77
2019-04-04T08:01:10.729Z,13.67
2019-04-04T08:03:42.396Z,14.40
2019-04-04T08:06:14.081Z,15.05
2019-04-04T08:08:45.008Z,15.13
2019-04-04T08:11:15.922Z,14.37
2019-04-04T08:13:47.231Z,14.80
2019-04-04T08:16:18.087Z,14.40
2019-04-04T08:18:48.961Z,13.23
2019-04-04T08:21:23.388Z,13.77
2019-04-04T08:23:54.603Z,13.77
2019-04-04T08:26:25.429Z,13.20
2019-04-04T08:28:57.471Z,11.23
2019-04-04T08:31:28.353Z,12.43
2019-04-04T08:33:59.197Z,12.07
2019-04-04T08:36:30.151Z,12.13
2019-04-04T08:39:01.250Z,15.63
2019-04-04T08:41:32.594Z,13.73
2019-04-04T08:44:03.875Z,12.57
2019-04-04T08:46:34.710Z,12.57
2019-04-04T08:49:05.825Z,12.57
2019-04-04T08:51:36.669Z,12.00
2019-04-04T08:54:07.483Z,10.90
2019-04-04T08:56:38.330Z,9.20
2019-04-04T08:59:09.151Z,9.10
2019-04-04T09:01:40.143Z,9.20
2019-04-04T09:04:11.230Z,9.43
2019-04-04T09:06:42.055Z,9.87
2019-04-04T09:09:12.915Z,9.63
2019-04-04T09:11:44.639Z,8.45
2019-04-04T09:14:15.767Z,8.03
2019-04-04T09:16:46.852Z,9.07
2019-04-04T09:19:17.787Z,8.43
2019-04-04T09:21:48.938Z,8.17
2019-04-04T09:24:20.384Z,7.87
2019-04-04T09:26:51.202Z,8.63
2019-04-04T09:29:22.025Z,8.60
2019-04-04T09:31:52.873Z,9.83
2019-04-04T09:34:23.684Z,9.00
2019-04-04T09:36:54.545Z,9.50
2019-04-04T09:39:25.800Z,10.90
2019-04-04T09:41:56.907Z,9.57
2019-04-04T09:44:27.711Z,9.85
2019-04-04T09:47:05.239Z,10.95
2019-04-04T09:49:31.459Z,10.20
2019-04-04T09:52:02.565Z,10.60
2019-04-04T09:54:33.649Z,10.10
2019-04-04T09:57:04.499Z,9.47
2019-04-04T09:59:35.677Z,11.37
2019-04-04T10:02:07.087Z,13.93
2019-04-04T10:04:37.911Z,13.33
2019-04-04T10:07:08.746Z,13.87
2019-04-04T10:09:39.562Z,12.63
2019-04-04T10:12:10.453Z,13.10
2019-04-04T10:14:41.605Z,15.70
2019-04-04T10:17:12.512Z,18.43
2019-04-04T10:19:43.337Z,17.93
2019-04-04T10:22:14.642Z,17.67
2019-04-04T10:24:46.109Z,16.00
2019-04-04T10:27:16.934Z,18.17
2019-04-04T10:29:47.809Z,18.33
2019-04-04T10:32:18.958Z,17.13
2019-04-04T10:34:49.764Z,15.17
2019-04-04T10:37:20.992Z,14.80
2019-04-04T10:39:51.860Z,14.10
2019-04-04T10:42:23.295Z,13.50
2019-04-04T10:44:54.091Z,13.40
2019-04-04T10:47:24.909Z,15.13
2019-04-04T10:49:58.433Z,13.83
2019-04-04T10:52:28.356Z,13.20
2019-04-04T10:55:01.520Z,12.20
2019-04-04T10:57:31.724Z,12.07
2019-04-04T11:00:03.296Z,12.73
2019-04-04T11:02:35.444Z,13.10
2019-04-04T11:05:06.548Z,14.67
2019-04-04T11:07:37.360Z,13.57
2019-04-04T11:10:08.364Z,22.57
2019-04-04T11:12:39.590Z,19.57
2019-04-04T11:15:10.795Z,17.53
2019-04-04T11:17:41.848Z,17.77
2019-04-04T11:20:13.069Z,18.23
2019-04-04T11:22:43.920Z,17.07
2019-04-04T11:25:14.813Z,16.50
2019-04-04T11:27:45.649Z,14.53
2019-04-04T11:30:17.771Z,13.85
2019-04-04T11:32:49.046Z,12.87
2019-04-04T11:35:19.970Z,14.53
2019-04-04T11:37:50.948Z,14.67
2019-04-04T11:40:21.754Z,14.50
2019-04-04T11:42:52.590Z,13.83
2019-04-04T11:45:23.417Z,15.90
2019-04-04T11:47:55.314Z,16.07
2019-04-04T11:50:26.440Z,16.50
2019-04-04T11:52:57.300Z,16.27
2019-04-04T11:55:28.119Z,13.65
2019-04-04T11:57:58.961Z,14.20
2019-04-04T12:00:32.635Z,15.00
2019-04-04T12:03:03.525Z,13.87
2019-04-04T12:05:35.259Z,14.03
2019-04-04T12:08:06.341Z,15.17
2019-04-04T12:10:37.473Z,14.47
2019-04-04T12:13:08.747Z,14.23
2019-04-04T12:15:39.703Z,14.13
2019-04-04T12:18:10.943Z,14.17
2019-04-04T12:20:43.481Z,14.27
2019-04-04T12:23:14.641Z,14.23
2019-04-04T12:25:46.167Z,15.07
2019-04-04T12:28:17.414Z,15.87
2019-04-04T12:30:48.277Z,14.67
2019-04-04T12:33:19.214Z,15.00
2019-04-04T12:35:52.505Z,15.03
2019-04-04T12:38:23.563Z,15.53
2019-04-04T12:40:55.048Z,15.43
2019-04-04T12:43:26.404Z,16.00
2019-04-04T12:45:57.512Z,16.37
2019-04-04T12:48:28.771Z,17.07
2019-04-04T12:51:00.225Z,15.50
2019-04-04T12:53:32.745Z,15.23
2019-04-04T12:56:04.270Z,16.03
2019-04-04T12:58:35.324Z,15.00
2019-04-04T13:01:06.510Z,16.60
2019-04-04T13:03:37.912Z,15.43
2019-04-04T13:06:09.049Z,17.07
2019-04-04T13:08:39.888Z,17.27
2019-04-04T13:11:11.080Z,16.40
2019-04-04T13:13:41.943Z,16.25
2019-04-04T13:16:12.870Z,17.00
2019-04-04T13:18:43.684Z,17.57
2019-04-04T13:21:14.535Z,16.50
2019-04-04T13:23:45.596Z,17.30
2019-04-04T13:26:16.462Z,17.20
2019-04-04T13:28:47.552Z,17.07
2019-04-04T13:31:19.605Z,16.23
2019-04-04T13:33:51.082Z,17.40
2019-04-04T13:36:21.917Z,16.83
2019-04-04T13:38:54.973Z,17.10
2019-04-04T13:41:25.350Z,17.20
2019-04-04T13:43:56.468Z,17.40
2019-04-04T13:46:29.373Z,17.37
2019-04-04T13:49:00.624Z,18.48
2019-04-04T13:51:32.051Z,17.27
2019-04-04T13:54:02.880Z,16.05
2019-04-04T13:56:33.706Z,18.60
2019-04-04T13:59:05.906Z,18.23
2019-04-04T14:01:37.006Z,18.77
2019-04-04T14:04:07.912Z,18.27
2019-04-04T14:06:38.505Z,18.00
2019-04-04T14:09:12.060Z,18.70
2019-04-04T14:11:42.953Z,18.30
2019-04-04T14:14:14.131Z,18.47
2019-04-04T14:16:45.023Z,17.07
2019-04-04T14:19:15.840Z,19.40
2019-04-04T14:21:46.688Z,21.07
2019-04-04T14:24:17.522Z,19.23
2019-04-04T14:26:48.416Z,20.63
2019-04-04T14:29:27.465Z,22.13
2019-04-04T14:31:51.800Z,19.83
2019-04-04T14:34:35.467Z,19.97
2019-04-04T14:37:06.598Z,21.07
2019-04-04T14:39:37.548Z,22.23
2019-04-04T14:42:08.357Z,20.90
2019-04-04T14:44:39.681Z,21.60
2019-04-04T14:47:10.658Z,23.90
2019-04-04T14:49:45.077Z,24.40
2019-04-04T14:52:14.592Z,24.13
2019-04-04T14:54:45.753Z,23.97
2019-04-04T14:57:17.014Z,24.97
2019-04-04T14:59:48.092Z,24.50
2019-04-04T15:02:19.260Z,27.53
2019-04-04T15:04:51.073Z,27.13
2019-04-04T15:07:22.282Z,26.02
2019-04-04T15:09:53.140Z,30.80
2019-04-04T15:12:24.731Z,28.62
2019-04-04T15:14:55.709Z,29.97
2019-04-04T15:17:26.916Z,27.37
2019-04-04T15:19:57.935Z,27.43
2019-04-04T15:22:31.745Z,28.83
2019-04-04T15:25:01.767Z,30.37
2019-04-04T15:27:32.712Z,29.23
2019-04-04T15:30:04.028Z,28.50
2019-04-04T15:32:35.093Z,29.33
2019-04-04T15:35:06.518Z,30.67
2019-04-04T15:37:37.591Z,30.43
2019-04-04T15:40:09.362Z,31.70
2019-04-04T15:42:40.585Z,33.33
2019-04-04T15:45:11.584Z,32.83
2019-04-04T15:47:42.692Z,32.87
2019-04-04T15:50:13.933Z,33.43
2019-04-04T15:52:45.026Z,32.77
2019-04-04T15:55:15.953Z,33.70
2019-04-04T15:57:47.184Z,33.92
2019-04-04T16:00:18.228Z,34.53
2019-04-04T16:02:49.176Z,34.27
2019-04-04T16:05:20.092Z,35.47
2019-04-04T16:07:52.496Z,36.30
2019-04-04T16:10:23.592Z,36.83
2019-04-04T16:12:54.789Z,36.73
2019-04-04T16:15:26.502Z,32.30
2019-04-04T16:17:57.622Z,32.67
2019-04-04T16:20:28.481Z,33.57
2019-04-04T16:22:59.829Z,32.03
2019-04-04T16:25:31.012Z,33.43
2019-04-04T16:28:01.833Z,32.55
2019-04-04T16:30:32.723Z,33.33
2019-04-04T16:33:03.659Z,35.25
2019-04-04T16:35:34.584Z,33.07
2019-04-04T16:38:05.413Z,33.08
2019-04-04T16:40:36.697Z,32.88
2019-04-04T16:43:08.640Z,33.27
2019-04-04T16:45:39.515Z,31.93
2019-04-04T16:48:13.755Z,32.10
2019-04-04T16:50:43.633Z,37.17
2019-04-04T16:53:15.082Z,32.47
2019-04-04T16:55:46.255Z,34.03
2019-04-04T16:58:17.057Z,33.00
2019-04-04T17:00:49.618Z,33.87
2019-04-04T17:03:21.139Z,32.10
2019-04-04T17:05:52.052Z,30.43
2019-04-04T17:08:23.915Z,30.03
2019-04-04T17:10:54.889Z,29.03
2019-04-04T17:13:26.277Z,31.03
2019-04-04T17:15:57.475Z,30.40
2019-04-04T17:18:28.331Z,30.92
2019-04-04T17:20:59.162Z,31.20
2019-04-04T17:23:30.474Z,29.10
2019-04-04T17:26:01.426Z,30.55
2019-04-04T17:28:32.926Z,29.87
2019-04-04T17:31:06.922Z,30.40
2019-04-04T17:33:37.961Z,31.10
2019-04-04T17:36:08.893Z,30.90
2019-04-04T17:38:40.611Z,31.37
2019-04-04T17:41:12.078Z,30.37
2019-04-04T17:43:44.203Z,30.53
2019-04-04T17:46:15.111Z,30.63
2019-04-04T17:48:46.098Z,32.03
2019-04-04T17:51:17.171Z,29.17
2019-04-04T17:53:48.390Z,31.07
2019-04-04T17:56:19.452Z,31.10
2019-04-04T17:58:50.805Z,31.23
2019-04-04T18:01:21.655Z,31.40
2019-04-04T18:03:52.795Z,29.50
2019-04-04T18:06:24.672Z,31.30
2019-04-04T18:08:55.646Z,31.10
2019-04-04T18:11:26.807Z,28.90
2019-04-04T18:13:57.940Z,29.20
2019-04-04T18:16:28.842Z,32.03
2019-04-04T18:18:59.687Z,31.37
2019-04-04T18:21:30.587Z,31.60
2019-04-04T18:24:01.830Z,32.23
2019-04-04T18:26:32.680Z,30.47
2019-04-04T18:29:04.523Z,29.87
2019-04-04T18:31:35.930Z,31.80
2019-04-04T18:34:08.657Z,30.00
2019-04-04T18:36:40.498Z,33.53
2019-04-04T18:39:12.394Z,31.30
2019-04-04T18:41:43.239Z,35.33
2019-04-04T18:44:14.661Z,30.60
2019-04-04T18:46:45.906Z,32.00
2019-04-04T18:49:16.762Z,34.30
2019-04-04T18:51:49.615Z,33.57
2019-04-04T18:54:20.467Z,34.77
2019-04-04T18:56:51.304Z,34.60
2019-04-04T18:59:23.143Z,35.03
2019-04-04T19:01:53.998Z,35.60
2019-04-04T19:04:26.148Z,36.97
2019-04-04T19:06:57.271Z,33.93
2019-04-04T19:09:28.099Z,35.57
2019-04-04T19:12:00.272Z,35.17
2019-04-04T19:14:34.487Z,35.60
2019-04-04T19:17:05.869Z,36.30
2019-04-04T19:19:37.766Z,35.80
2019-04-04T19:22:09.236Z,35.43
2019-04-04T19:24:41.718Z,35.53
2019-04-04T19:27:12.568Z,35.05
2019-04-04T19:29:43.783Z,34.73
2019-04-04T19:32:15.064Z,36.97
2019-04-04T19:34:46.163Z,36.83
2019-04-04T19:37:17.110Z,34.20
2019-04-04T19:39:48.249Z,37.17
2019-04-04T19:42:19.259Z,37.27
2019-04-04T19:44:53.660Z,36.73
2019-04-04T19:47:25.382Z,36.60
2019-04-04T19:49:56.650Z,37.33
2019-04-04T19:52:27.559Z,36.63
2019-04-04T19:54:58.481Z,36.87
2019-04-04T19:57:29.646Z,37.40
2019-04-04T20:00:00.757Z,38.97
2019-04-04T20:02:31.606Z,37.77
2019-04-04T20:05:02.688Z,38.75
2019-04-04T20:07:34.245Z,39.57
2019-04-04T20:10:05.955Z,39.58
2019-04-04T20:12:37.482Z,40.20
2019-04-04T20:15:09.642Z,37.78
2019-04-04T20:17:40.799Z,38.97
2019-04-04T20:20:12.122Z,38.37
2019-04-04T20:22:43.278Z,40.03
2019-04-04T20:25:14.215Z,37.75
2019-04-04T20:27:54.744Z,38.58
2019-04-04T20:30:21.649Z,38.27
2019-04-04T20:32:52.515Z,36.70
2019-04-04T20:35:23.404Z,36.73
2019-04-04T20:37:54.750Z,38.07
2019-04-04T20:40:25.976Z,39.20
2019-04-04T20:42:57.629Z,37.23
2019-04-04T20:45:28.474Z,36.83
2019-04-04T20:48:00.273Z,38.27
2019-04-04T20:50:31.468Z,36.70
2019-04-04T20:53:02.683Z,34.30
2019-04-04T20:55:33.666Z,35.63
2019-04-04T20:58:05.421Z,35.28
2019-04-04T21:00:36.412Z,36.03
2019-04-04T21:03:07.709Z,35.95
2019-04-04T21:05:38.532Z,34.43
2019-04-04T21:08:09.657Z,32.67
2019-04-04T21:10:40.763Z,34.70
2019-04-04T21:13:11.562Z,34.90
2019-04-04T21:15:42.683Z,33.57
2019-04-04T21:18:14.036Z,34.70
2019-04-04T21:20:45.261Z,31.90
2019-04-04T21:23:16.255Z,32.33
2019-04-04T21:25:47.357Z,33.27
2019-04-04T21:28:18.220Z,34.27
2019-04-04T21:30:49.066Z,33.17
2019-04-04T21:33:20.152Z,34.37
2019-04-04T21:35:51.342Z,35.23
2019-04-04T21:38:23.981Z,34.67
2019-04-04T21:40:54.895Z,34.13
2019-04-04T21:43:25.954Z,34.23
2019-04-04T21:45:57.136Z,34.53
2019-04-04T21:48:29.123Z,33.60
2019-04-04T21:51:00.450Z,34.83
2019-04-04T21:53:31.361Z,33.63
2019-04-04T21:56:02.223Z,33.23
2019-04-04T21:58:33.286Z,33.80
2019-04-04T22:01:04.305Z,36.10
2019-04-04T22:03:36.772Z,33.43
2019-04-04T22:06:07.692Z,35.60
2019-04-04T22:08:38.596Z,34.58
2019-04-04T22:11:09.448Z,33.90
2019-04-04T22:13:40.841Z,32.98
2019-04-04T22:16:12.307Z,33.40
2019-04-04T22:18:43.436Z,34.10
2019-04-04T22:21:14.840Z,34.95
2019-04-04T22:23:46.047Z,33.93
2019-04-04T22:26:16.875Z,35.30
2019-04-04T22:28:47.734Z,36.47
2019-04-04T22:31:19.153Z,34.97
2019-04-04T22:33:50.405Z,37.20
2019-04-04T22:36:21.232Z,34.43
2019-04-04T22:38:52.152Z,35.57
2019-04-04T22:41:22.981Z,35.43
2019-04-04T22:44:03.352Z,36.50
2019-04-04T22:46:27.566Z,33.87
2019-04-04T22:48:59.906Z,37.10
2019-04-04T22:51:30.722Z,37.63
2019-04-04T22:54:01.597Z,35.43
2019-04-04T22:56:32.995Z,35.97
2019-04-04T22:59:03.870Z,39.07
2019-04-04T23:01:34.685Z,35.10
2019-04-04T23:04:05.603Z,36.95
2019-04-04T23:06:36.696Z,35.70
2019-04-04T23:09:08.433Z,39.47
2019-04-04T23:11:39.785Z,34.92
2019-04-04T23:14:11.158Z,38.95
2019-04-04T23:16:42.508Z,38.23
2019-04-04T23:19:13.378Z,37.70
2019-04-04T23:21:44.217Z,38.37
2019-04-04T23:24:15.720Z,38.43
2019-04-04T23:26:47.248Z,38.75
2019-04-04T23:29:18.101Z,37.95
2019-04-04T23:31:49.077Z,38.13
2019-04-04T23:34:20.507Z,38.07
2019-04-04T23:36:51.978Z,37.63
2019-04-04T23:39:23.432Z,37.37
2019-04-04T23:41:54.618Z,38.27
2019-04-04T23:44:25.474Z,37.53
2019-04-04T23:46:56.296Z,39.27
2019-04-04T23:49:27.794Z,38.30
2019-04-04T23:51:59.071Z,39.20
2019-04-04T23:54:30.480Z,39.67
2019-04-04T23:57:01.817Z,38.50
2019-04-04T23:59:32.768Z,36.97
